Time;durP1;ratioP1;P1;durP2;ratioP2;P2;SDS_P1;SDS_P2;PMS_P1;PMS_P2;Temp;Humidity;BMP_temperature;BMP_pressure;BME280_temperature;BME280_humidity;BME280_pressure;Samples;Min_cycle;Max_cycle;Signal;HPM_P1;HPM_P2
2024/01/09 00:00:09;;;;;;;23.85;12.60;;;;;;;-10.35;91.43;103198.91;7401277;19;20018;-65
2024/01/09 00:02:37;;;;;;;22.23;12.18;;;;;;;-10.35;91.48;103196.34;7401399;19;20508;-65
2024/01/09 00:05:06;;;;;;;21.35;11.88;;;;;;;-10.37;91.50;103196.25;7401207;19;20007;-66
2024/01/09 00:07:35;;;;;;;25.83;13.52;;;;;;;-10.38;91.60;103179.22;7402838;19;20029;-65
2024/01/09 00:10:03;;;;;;;23.48;12.45;;;;;;;-10.39;91.40;103190.09;7400353;19;20052;-66
2024/01/09 00:12:31;;;;;;;23.10;12.25;;;;;;;-10.41;91.47;103191.59;7403461;19;20011;-66
2024/01/09 00:15:00;;;;;;;22.63;12.50;;;;;;;-10.42;91.59;103189.81;7407106;19;20014;-65
2024/01/09 00:17:32;;;;;;;22.70;11.70;;;;;;;-10.41;91.53;103188.16;7404015;19;20007;-66
2024/01/09 00:20:01;;;;;;;24.45;12.20;;;;;;;-10.43;91.62;103193.06;7404030;19;20495;-66
2024/01/09 00:22:29;;;;;;;18.27;11.10;;;;;;;-10.43;91.59;103187.13;7403765;19;20014;-66
2024/01/09 00:24:58;;;;;;;20.17;11.23;;;;;;;-10.45;91.70;103183.50;7403792;19;20007;-66
2024/01/09 00:27:26;;;;;;;21.80;11.45;;;;;;;-10.47;91.58;103190.97;7404105;19;20015;-66
2024/01/09 00:29:55;;;;;;;23.65;12.88;;;;;;;-10.48;91.67;103191.69;7404106;19;20082;-66
2024/01/09 00:32:23;;;;;;;23.50;12.25;;;;;;;-10.50;91.64;103194.09;7404145;19;20528;-66
2024/01/09 00:34:54;;;;;;;26.10;13.18;;;;;;;-10.53;91.77;103191.22;7403910;19;20018;-64
2024/01/09 00:37:23;;;;;;;24.50;13.63;;;;;;;-10.54;91.63;103191.06;7404852;19;20018;-66
2024/01/09 00:39:52;;;;;;;25.25;12.18;;;;;;;-10.55;91.88;103191.81;7405627;19;20480;-66
2024/01/09 00:42:21;;;;;;;21.88;11.70;;;;;;;-10.57;91.86;103196.72;7404539;19;20354;-66
2024/01/09 00:44:49;;;;;;;25.48;12.35;;;;;;;-10.58;91.80;103199.13;7405492;19;20418;-66
2024/01/09 00:47:18;;;;;;;21.65;12.13;;;;;;;-10.60;91.82;103195.50;7403117;19;20361;-66
2024/01/09 00:49:48;;;;;;;21.75;11.93;;;;;;;-10.61;91.93;103194.63;7403272;19;20006;-66
2024/01/09 00:52:19;;;;;;;21.60;12.00;;;;;;;-10.62;92.01;103194.47;7404480;19;20021;-66
2024/01/09 00:54:47;;;;;;;25.73;13.05;;;;;;;-10.69;92.03;103188.75;7403214;19;20031;-66
2024/01/09 00:57:16;;;;;;;23.23;12.05;;;;;;;-10.66;92.07;103194.13;7403686;19;20020;-65
2024/01/09 00:59:44;;;;;;;22.63;12.52;;;;;;;-10.67;92.05;103204.13;7403808;19;20014;-65
2024/01/09 01:02:13;;;;;;;26.52;12.85;;;;;;;-10.69;92.06;103200.53;7404099;19;20010;-65
2024/01/09 01:04:41;;;;;;;24.75;12.43;;;;;;;-10.71;92.00;103213.06;7405966;19;20007;-66
2024/01/09 01:07:10;;;;;;;25.75;12.63;;;;;;;-10.72;92.17;103206.19;7405253;19;20027;-65
2024/01/09 01:09:41;;;;;;;23.73;12.65;;;;;;;-10.74;92.31;103212.75;7404596;19;20070;-65
2024/01/09 01:12:09;;;;;;;26.67;12.65;;;;;;;-10.75;92.27;103210.94;7404383;19;20010;-65
2024/01/09 01:14:38;;;;;;;25.85;12.25;;;;;;;-10.76;92.24;103216.75;7405472;19;20014;-65
2024/01/09 01:17:07;;;;;;;26.33;13.00;;;;;;;-10.77;92.06;103219.13;7402329;19;20011;-65
2024/01/09 01:19:35;;;;;;;25.80;12.10;;;;;;;-10.78;92.14;103218.22;7403597;19;20003;-65
2024/01/09 01:22:04;;;;;;;20.70;12.15;;;;;;;-10.79;92.34;103220.59;7402643;19;20010;-65
2024/01/09 01:24:32;;;;;;;25.33;13.05;;;;;;;-10.79;92.19;103216.44;7403444;19;20028;-65
2024/01/09 01:27:03;;;;;;;18.90;11.27;;;;;;;-10.81;92.25;103216.25;7400970;19;20078;-65
2024/01/09 01:29:32;;;;;;;24.38;12.00;;;;;;;-10.80;92.22;103214.66;7400373;19;20062;-65
2024/01/09 01:32:00;;;;;;;22.90;12.20;;;;;;;-10.81;92.31;103217.91;7400621;19;20014;-65
2024/01/09 01:34:28;;;;;;;20.05;11.88;;;;;;;-10.82;92.24;103218.66;7398982;19;20031;-65
2024/01/09 01:36:57;;;;;;;20.73;11.45;;;;;;;-10.81;92.18;103221.34;7400445;19;20006;-66
2024/01/09 01:39:25;;;;;;;22.75;12.63;;;;;;;-10.82;92.20;103219.53;7401580;19;20015;-65
2024/01/09 01:41:54;;;;;;;23.90;12.90;;;;;;;-10.81;92.10;103223.00;7399089;19;20415;-65
2024/01/09 01:44:25;;;;;;;24.85;12.13;;;;;;;-10.83;92.07;103237.13;7399270;19;20014;-64
2024/01/09 01:46:54;;;;;;;26.17;12.15;;;;;;;-10.83;92.12;103227.91;7401056;19;20357;-65
2024/01/09 01:49:23;;;;;;;24.23;12.95;;;;;;;-10.83;92.01;103221.91;7400051;19;20010;-65
2024/01/09 01:51:54;;;;;;;26.42;12.95;;;;;;;-10.83;92.22;103227.91;7398808;19;20082;-65
2024/01/09 01:54:25;;;;;;;23.08;11.85;;;;;;;-10.83;92.21;103221.91;7399588;19;20502;-65
2024/01/09 01:56:54;;;;;;;22.63;12.77;;;;;;;-10.82;92.23;103226.25;7400424;19;20014;-64
2024/01/09 01:59:26;;;;;;;25.95;12.10;;;;;;;-10.83;92.36;103221.91;7400017;19;20483;-65
2024/01/09 02:01:55;;;;;;;23.25;12.23;;;;;;;-10.82;92.35;103228.78;7399115;19;20363;-65
2024/01/09 02:04:26;;;;;;;24.85;12.45;;;;;;;-10.83;92.37;103224.44;7398809;19;20014;-64
2024/01/09 02:07:01;;;;;;;28.70;13.00;;;;;;;-10.85;92.42;103223.41;7399734;19;20011;-65
2024/01/09 02:09:30;;;;;;;24.25;11.98;;;;;;;-10.84;92.34;103226.09;7402328;19;20425;-65
2024/01/09 02:12:00;;;;;;;26.20;12.57;;;;;;;-10.83;92.45;103227.00;7404780;19;20013;-65
2024/01/09 02:14:31;;;;;;;25.95;12.13;;;;;;;-10.83;92.29;103232.06;7389828;19;20011;-67
2024/01/09 02:16:59;;;;;;;24.35;12.13;;;;;;;-10.84;92.36;103231.19;7395808;19;20490;-67
2024/01/09 02:19:28;;;;;;;26.23;13.23;;;;;;;-10.85;92.31;103220.88;7394133;19;20489;-67
2024/01/09 02:21:56;;;;;;;24.65;11.73;;;;;;;-10.86;92.44;103226.69;7395532;19;20082;-66
2024/01/09 02:24:25;;;;;;;22.60;12.50;;;;;;;-10.88;92.47;103221.47;7394376;19;20011;-67
2024/01/09 02:27:03;;;;;;;24.35;11.18;;;;;;;-10.89;92.49;103223.81;7394095;19;20390;-67
2024/01/09 02:29:36;;;;;;;21.75;11.88;;;;;;;-10.88;92.63;103226.53;7393831;19;20011;-67
2024/01/09 02:32:08;;;;;;;25.53;12.97;;;;;;;-10.92;92.61;103218.44;7394857;19;20066;-66
2024/01/09 02:34:39;;;;;;;21.40;11.18;;;;;;;-10.90;92.51;103232.19;7393634;19;21077;-67
2024/01/09 02:37:07;;;;;;;20.33;11.40;;;;;;;-10.93;92.59;103232.75;7395087;19;20007;-67
2024/01/09 02:39:36;;;;;;;20.23;11.38;;;;;;;-10.94;92.43;103224.97;7393848;19;20011;-67
2024/01/09 02:42:05;;;;;;;24.38;12.38;;;;;;;-10.94;92.65;103222.41;7395409;19;20083;-67
2024/01/09 02:44:33;;;;;;;23.40;11.02;;;;;;;-10.94;92.67;103217.34;7393385;19;20011;-66
2024/01/09 02:47:01;;;;;;;23.35;12.32;;;;;;;-10.95;92.55;103220.63;7395138;19;20015;-66
2024/01/09 02:49:33;;;;;;;23.20;12.15;;;;;;;-10.98;92.63;103217.03;7394651;19;20082;-67
2024/01/09 02:52:02;;;;;;;22.40;11.85;;;;;;;-10.98;92.84;103217.03;7393706;19;20024;-67
2024/01/09 02:54:30;;;;;;;23.45;11.48;;;;;;;-10.99;92.61;103212.69;7393559;19;20382;-67
2024/01/09 02:56:58;;;;;;;20.50;11.50;;;;;;;-10.99;92.86;103216.88;7394589;19;20082;-67
2024/01/09 02:59:27;;;;;;;23.63;11.73;;;;;;;-11.00;92.87;103215.09;7394868;19;20081;-67
2024/01/09 03:02:02;;;;;;;24.20;11.82;;;;;;;-11.02;92.72;103216.53;7394880;19;20019;-67
2024/01/09 03:04:34;;;;;;;20.25;11.75;;;;;;;-11.04;92.83;103224.00;7393338;19;20014;-67
2024/01/09 03:07:02;;;;;;;19.95;11.18;;;;;;;-11.06;92.91;103219.50;7395102;19;20021;-66
2024/01/09 03:09:31;;;;;;;17.25;11.10;;;;;;;-11.07;92.77;103217.69;7393715;19;20481;-67
2024/01/09 03:11:59;;;;;;;23.70;11.70;;;;;;;-11.09;92.85;103219.16;7394596;19;20091;-67
2024/01/09 03:14:28;;;;;;;23.77;11.80;;;;;;;-11.11;92.83;103223.19;7392483;19;20082;-67
2024/01/09 03:16:56;;;;;;;21.70;11.63;;;;;;;-11.13;92.85;103223.03;7395555;19;20014;-67
2024/01/09 03:19:25;;;;;;;25.05;12.20;;;;;;;-11.16;92.72;103230.31;7393903;19;20014;-67
2024/01/09 03:21:56;;;;;;;23.85;13.25;;;;;;;-11.17;92.94;103229.41;7392885;19;20011;-67
2024/01/09 03:24:24;;;;;;;24.42;11.43;;;;;;;-11.19;92.61;103228.34;7392752;19;20066;-67
2024/01/09 03:26:53;;;;;;;22.15;11.88;;;;;;;-11.23;92.41;103217.69;7393742;19;20367;-67
2024/01/09 03:29:21;;;;;;;24.42;12.05;;;;;;;-11.27;92.57;103228.25;7392004;19;20078;-67
2024/01/09 03:31:50;;;;;;;23.83;12.02;;;;;;;-11.32;92.58;103230.28;7394025;19;20074;-67
2024/01/09 03:34:18;;;;;;;20.83;10.95;;;;;;;-11.36;92.77;103226.56;7391722;19;20018;-67
2024/01/09 03:36:47;;;;;;;23.90;10.85;;;;;;;-11.38;92.89;103224.59;7391595;19;20018;-67
2024/01/09 03:39:18;;;;;;;25.80;12.00;;;;;;;-11.39;92.88;103223.69;7394576;19;20010;-67
2024/01/09 03:41:47;;;;;;;24.00;12.55;;;;;;;-11.42;92.99;103228.44;7400669;19;20509;-67
2024/01/09 03:44:15;;;;;;;21.52;11.15;;;;;;;-11.42;93.16;103220.81;7398737;19;20034;-67
2024/01/09 03:46:44;;;;;;;20.50;10.93;;;;;;;-11.42;93.21;103217.38;7398345;19;20028;-67
2024/01/09 03:49:19;;;;;;;21.48;12.48;;;;;;;-11.44;93.15;103217.22;7400935;19;20070;-67
2024/01/09 03:51:47;;;;;;;20.30;11.15;;;;;;;-11.45;93.00;103215.41;7400833;19;20031;-66
2024/01/09 03:54:18;;;;;;;21.17;11.45;;;;;;;-11.46;92.95;103216.13;7398077;19;20034;-66
2024/01/09 03:56:47;;;;;;;25.08;12.88;;;;;;;-11.49;93.14;103216.72;7400504;19;20018;-67
2024/01/09 03:59:15;;;;;;;20.33;10.95;;;;;;;-11.51;93.17;103208.06;7398032;19;20115;-67
2024/01/09 04:01:44;;;;;;;22.73;11.15;;;;;;;-11.51;93.38;103208.06;7399969;19;20115;-67
2024/01/09 04:04:12;;;;;;;23.63;11.30;;;;;;;-11.52;93.11;103212.97;7397997;19;20014;-67
2024/01/09 04:06:45;;;;;;;21.35;11.73;;;;;;;-11.54;93.32;103209.38;7400314;19;20070;-67
2024/01/09 04:09:14;;;;;;;24.40;11.60;;;;;;;-11.54;93.16;103209.38;7399851;19;20017;-67
2024/01/09 04:11:49;;;;;;;24.38;12.05;;;;;;;-11.55;93.19;103215.16;7397497;19;20014;-66
2024/01/09 04:14:17;;;;;;;25.60;11.32;;;;;;;-11.56;93.21;103213.34;7397005;19;20027;-67
2024/01/09 04:16:48;;;;;;;21.92;10.15;;;;;;;-11.57;93.18;103206.50;7400078;19;20073;-67
2024/01/09 04:19:16;;;;;;;21.73;11.95;;;;;;;-11.58;93.27;103220.81;7400131;19;20021;-66
2024/01/09 04:21:45;;;;;;;26.30;11.68;;;;;;;-11.59;93.06;103224.06;7399618;19;20526;-67
2024/01/09 04:24:13;;;;;;;24.90;13.00;;;;;;;-11.62;93.16;103214.50;7397332;19;20023;-67
2024/01/09 04:26:42;;;;;;;27.58;12.90;;;;;;;-11.60;92.98;103218.84;7399272;19;20496;-67
2024/01/09 04:29:13;;;;;;;25.02;11.68;;;;;;;-11.64;93.13;103218.53;7399238;19;20010;-67
2024/01/09 04:31:41;;;;;;;25.85;12.15;;;;;;;-11.63;93.21;103222.84;7396817;19;20019;-67
2024/01/09 04:34:10;;;;;;;21.92;12.07;;;;;;;-11.64;93.23;103226.13;7397593;19;20031;-67
2024/01/09 04:36:39;;;;;;;25.77;13.18;;;;;;;-11.65;93.16;103226.84;7399069;19;20573;-67
2024/01/09 04:39:07;;;;;;;26.52;12.90;;;;;;;-11.66;93.22;103230.13;7398980;19;20477;-67
2024/01/09 04:41:36;;;;;;;27.13;12.73;;;;;;;-11.68;93.18;103221.44;7399138;19;20031;-67
2024/01/09 04:44:04;;;;;;;24.55;12.35;;;;;;;-11.68;93.45;103223.97;7397264;19;20031;-66
2024/01/09 04:46:35;;;;;;;27.02;13.07;;;;;;;-11.69;93.26;103226.34;7398820;19;20006;-67
2024/01/09 04:49:04;;;;;;;26.77;12.75;;;;;;;-11.71;93.19;103227.78;7397020;19;20014;-66
2024/01/09 04:51:33;;;;;;;23.40;12.18;;;;;;;-11.72;93.33;103220.97;7395848;19;20070;-67
2024/01/09 04:54:01;;;;;;;21.45;11.43;;;;;;;-11.73;93.32;103221.69;7397540;19;20022;-67
2024/01/09 04:56:30;;;;;;;22.85;11.30;;;;;;;-11.74;93.30;103223.31;7398792;19;20031;-67
2024/01/09 04:58:58;;;;;;;26.55;13.15;;;;;;;-11.75;93.34;103224.06;7398067;19;20481;-67
2024/01/09 05:01:27;;;;;;;25.67;12.38;;;;;;;-11.75;93.42;103225.69;7398756;19;20015;-67
2024/01/09 05:03:58;;;;;;;23.55;12.18;;;;;;;-11.78;93.36;103221.19;7396254;19;20010;-67
2024/01/09 05:06:26;;;;;;;22.80;12.18;;;;;;;-11.79;93.46;103229.50;7398696;19;20023;-67
2024/01/09 05:08:55;;;;;;;22.58;11.82;;;;;;;-11.80;93.39;103226.09;7397771;19;20550;-66
2024/01/09 05:11:23;;;;;;;21.60;10.70;;;;;;;-11.81;93.53;103219.22;7396483;19;20035;-66
2024/01/09 05:13:58;;;;;;;20.75;11.25;;;;;;;-11.82;93.41;103217.41;7394837;19;20035;-67
2024/01/09 05:16:33;;;;;;;25.65;12.70;;;;;;;-11.82;93.31;103219.06;7397576;19;20023;-66
2024/01/09 05:19:04;;;;;;;24.58;12.32;;;;;;;-11.84;93.40;103218.91;7395415;19;20485;-66
2024/01/09 05:21:32;;;;;;;24.25;11.68;;;;;;;-11.85;93.60;103214.56;7397171;19;20481;-67
2024/01/09 05:24:01;;;;;;;29.35;13.52;;;;;;;-11.87;93.44;103216.00;7396405;19;20014;-67
2024/01/09 05:26:29;;;;;;;20.58;11.55;;;;;;;-11.87;93.43;103215.13;7397445;19;20031;-67
2024/01/09 05:28:58;;;;;;;25.67;11.38;;;;;;;-11.88;93.69;103209.16;7396384;19;20070;-66
2024/01/09 05:31:27;;;;;;;26.52;12.85;;;;;;;-11.88;93.56;103216.75;7395017;19;20014;-67
2024/01/09 05:33:55;;;;;;;22.40;12.45;;;;;;;-11.89;93.46;103229.25;7395275;19;20498;-67
2024/01/09 05:36:26;;;;;;;23.95;12.70;;;;;;;-11.91;93.43;103229.06;7396777;19;20007;-67
2024/01/09 05:38:55;;;;;;;25.17;12.25;;;;;;;-11.92;93.46;103231.44;7397519;19;20014;-67
2024/01/09 05:41:24;;;;;;;22.70;12.25;;;;;;;-11.93;93.29;103228.00;7396459;19;20391;-67
2024/01/09 05:43:52;;;;;;;25.52;13.05;;;;;;;-11.93;93.51;103234.72;7394604;19;20477;-67
2024/01/09 05:46:21;;;;;;;27.27;12.63;;;;;;;-11.93;93.52;103227.13;7395867;19;20023;-67
2024/01/09 05:48:49;;;;;;;29.10;14.65;;;;;;;-11.93;93.45;103232.19;7396001;19;20014;-66
2024/01/09 05:51:18;;;;;;;31.27;14.25;;;;;;;-11.95;93.78;103230.38;7394799;19;20019;-67
2024/01/09 05:53:49;;;;;;;24.52;12.60;;;;;;;-11.96;93.61;103226.06;7394884;19;20014;-67
2024/01/09 05:56:18;;;;;;;27.38;13.45;;;;;;;-11.96;93.47;103226.06;7393430;19;20010;-66
2024/01/09 05:58:46;;;;;;;25.40;12.48;;;;;;;-11.98;93.77;103227.56;7394152;19;20078;-67
2024/01/09 06:01:15;;;;;;;27.05;13.50;;;;;;;-11.97;93.53;103233.50;7394239;19;20027;-66
2024/01/09 06:03:43;;;;;;;20.98;11.65;;;;;;;-11.98;93.72;103219.03;7391496;19;20011;-67
2024/01/09 06:06:11;;;;;;;25.13;11.95;;;;;;;-11.98;93.95;103211.44;7395795;19;20014;-67
2024/01/09 06:08:40;;;;;;;23.38;11.57;;;;;;;-12.00;93.56;103218.00;7393360;19;20027;-67
2024/01/09 06:11:11;;;;;;;24.92;12.73;;;;;;;-11.99;93.75;103209.63;7394770;19;20422;-67
2024/01/09 06:13:40;;;;;;;24.08;12.00;;;;;;;-11.99;93.84;103209.63;7393822;19;20373;-67
2024/01/09 06:16:09;;;;;;;25.08;13.70;;;;;;;-12.00;93.74;103223.06;7395228;19;20481;-65
2024/01/09 06:18:37;;;;;;;28.55;12.98;;;;;;;-12.02;93.81;103215.25;7395105;19;20023;-66
2024/01/09 06:21:06;;;;;;;26.35;13.40;;;;;;;-12.03;93.78;103213.50;7395149;19;20014;-65
2024/01/09 06:23:35;;;;;;;35.35;14.68;;;;;;;-12.05;93.61;103222.53;7394275;19;20007;-68
2024/01/09 06:26:03;;;;;;;30.10;14.18;;;;;;;-12.05;93.75;103226.72;7394679;19;20015;-66
2024/01/09 06:28:35;;;;;;;35.88;15.98;;;;;;;-12.05;93.70;103229.25;7394086;19;20028;-67
2024/01/09 06:31:03;;;;;;;30.63;14.85;;;;;;;-12.06;93.73;103230.84;7394034;19;20010;-67
2024/01/09 06:33:32;;;;;;;30.55;15.68;;;;;;;-12.07;93.71;103226.53;7394020;19;20015;-67
2024/01/09 06:36:00;;;;;;;33.22;15.38;;;;;;;-12.06;93.71;103240.09;7393610;19;20420;-67
2024/01/09 06:38:29;;;;;;;28.13;14.23;;;;;;;-12.08;93.70;103234.84;7394574;19;20081;-65
2024/01/09 06:40:57;;;;;;;27.90;13.90;;;;;;;-12.10;93.66;103236.31;7392412;19;20498;-65
2024/01/09 06:43:25;;;;;;;31.42;14.63;;;;;;;-12.10;93.74;103235.41;7394016;19;20018;-65
2024/01/09 06:45:57;;;;;;;33.83;15.55;;;;;;;-12.10;93.81;103237.94;7394313;19;20473;-65
2024/01/09 06:48:25;;;;;;;26.08;12.80;;;;;;;-12.12;93.72;103250.44;7395000;19;20013;-65
2024/01/09 06:50:54;;;;;;;31.35;14.10;;;;;;;-12.13;93.55;103247.00;7393891;19;20018;-65
2024/01/09 06:53:23;;;;;;;28.88;14.27;;;;;;;-12.13;93.68;103248.63;7393498;19;20015;-65
2024/01/09 06:55:52;;;;;;;33.58;14.32;;;;;;;-12.14;93.81;103244.31;7394407;19;20030;-65
2024/01/09 06:58:21;;;;;;;31.85;14.23;;;;;;;-12.15;93.66;103240.00;7394263;19;20015;-62
2024/01/09 07:00:49;;;;;;;27.55;14.35;;;;;;;-12.15;93.85;103243.41;7393535;19;20027;-63
2024/01/09 07:03:20;;;;;;;27.02;15.23;;;;;;;-12.15;93.93;103245.94;7393670;19;20015;-63
2024/01/09 07:05:49;;;;;;;34.35;14.93;;;;;;;-12.14;93.78;103251.91;7391831;19;20505;-63
2024/01/09 07:08:18;;;;;;;29.20;15.18;;;;;;;-12.17;93.58;103249.94;7394261;19;20018;-63
2024/01/09 07:10:46;;;;;;;31.15;14.20;;;;;;;-12.18;93.38;103258.25;7393500;19;20381;-63
2024/01/09 07:13:14;;;;;;;29.58;12.98;;;;;;;-12.19;93.33;103253.03;7391954;19;20031;-63
2024/01/09 07:15:43;;;;;;;32.90;16.35;;;;;;;-12.22;93.52;103255.22;7397253;19;20022;-65
2024/01/09 07:18:12;;;;;;;27.58;14.10;;;;;;;-12.24;93.71;103252.53;7401684;19;20017;-63
2024/01/09 07:20:43;;;;;;;29.92;13.45;;;;;;;-12.23;93.64;103263.53;7398613;19;20010;-64
2024/01/09 07:23:11;;;;;;;26.40;13.60;;;;;;;-12.24;93.85;103259.19;7401053;19;20022;-64
2024/01/09 07:25:40;;;;;;;26.65;13.20;;;;;;;-12.19;94.26;103260.63;7400942;19;20023;-67
2024/01/09 07:28:08;;;;;;;33.60;15.10;;;;;;;-12.13;94.75;103263.81;7401294;19;20018;-68
2024/01/09 07:30:37;;;;;;;31.00;15.70;;;;;;;-12.05;95.40;103265.56;7401071;19;20031;-69
2024/01/09 07:33:06;;;;;;;32.20;15.20;;;;;;;-11.96;95.30;103261.50;7399939;19;20359;-67
2024/01/09 07:35:37;;;;;;;41.85;18.15;;;;;;;-11.87;95.10;103256.53;7401076;19;20019;-68
2024/01/09 07:38:09;;;;;;;33.55;16.55;;;;;;;-11.79;94.71;103265.88;7401082;19;20010;-68
2024/01/09 07:40:37;;;;;;;31.50;15.45;;;;;;;-11.73;94.55;103275.75;7399461;19;20010;-67
2024/01/09 07:43:06;;;;;;;33.42;17.20;;;;;;;-11.67;94.33;103271.38;7399173;19;20031;-67
2024/01/09 07:45:35;;;;;;;33.58;15.95;;;;;;;-11.63;93.40;103273.50;7398654;19;20022;-70
2024/01/09 07:48:04;;;;;;;31.73;15.75;;;;;;;-11.62;93.19;103279.47;7398116;19;20015;-67
2024/01/09 07:50:33;;;;;;;37.75;17.33;;;;;;;-11.62;93.26;103275.31;7397395;19;20024;-69
2024/01/09 07:53:01;;;;;;;35.38;16.63;;;;;;;-11.58;93.67;103290.84;7399857;19;20019;-69
2024/01/09 07:55:32;;;;;;;32.60;14.95;;;;;;;-11.59;93.73;103278.91;7396766;19;20011;-69
2024/01/09 07:58:02;;;;;;;32.40;14.82;;;;;;;-11.61;93.64;103281.28;7399625;19;20433;-68
2024/01/09 08:00:32;;;;;;;35.90;15.90;;;;;;;-11.62;93.71;103275.31;7399961;19;20034;-68
2024/01/09 08:03:01;;;;;;;32.72;16.20;;;;;;;-11.63;93.71;103275.13;7398737;19;20089;-68
2024/01/09 08:05:29;;;;;;;36.17;17.33;;;;;;;-11.64;93.37;103281.84;7400534;19;20014;-68
2024/01/09 08:07:58;;;;;;;39.92;18.20;;;;;;;-11.66;93.41;103277.34;7400072;19;20030;-68
2024/01/09 08:10:26;;;;;;;37.60;17.77;;;;;;;-11.67;93.57;103275.56;7399196;19;20077;-69
2024/01/09 08:12:58;;;;;;;37.88;17.30;;;;;;;-11.69;93.58;103275.38;7397339;19;20014;-69
2024/01/09 08:15:27;;;;;;;33.47;18.48;;;;;;;-11.69;93.28;103287.13;7395811;19;20010;-68
2024/01/09 08:18:02;;;;;;;36.75;18.10;;;;;;;-11.72;93.19;103285.16;7398366;19;20031;-69
2024/01/09 08:20:31;;;;;;;33.17;17.55;;;;;;;-11.71;93.33;103286.97;7397073;19;20010;-69
2024/01/09 08:23:00;;;;;;;42.50;19.45;;;;;;;-11.71;93.08;103289.50;7396600;19;20018;-69
2024/01/09 08:25:29;;;;;;;37.85;19.63;;;;;;;-11.70;92.99;103290.41;7396317;19;20021;-69
2024/01/09 08:28:00;;;;;;;38.22;17.98;;;;;;;-11.71;93.08;103294.56;7396091;19;20045;-69
2024/01/09 08:30:50;;;;;;;36.63;18.55;;;;;;;-11.71;93.31;103286.97;7399542;19;20011;-68
2024/01/09 08:33:19;;;;;;;37.58;17.35;;;;;;;-11.70;93.36;103288.78;7397884;19;20015;-68
2024/01/09 08:35:50;;;;;;;39.13;20.02;;;;;;;-11.69;93.38;103298.19;7398834;19;20027;-68
2024/01/09 08:38:18;;;;;;;44.53;21.10;;;;;;;-11.65;93.51;103290.19;7400196;19;20014;-69
2024/01/09 08:40:52;;;;;;;44.92;21.95;;;;;;;-11.62;93.67;103298.09;7396417;19;20010;-69
2024/01/09 08:43:24;;;;;;;44.00;21.30;;;;;;;-11.58;93.26;103286.66;7398266;19;20015;-69
2024/01/09 08:45:52;;;;;;;39.17;18.58;;;;;;;-11.55;93.52;103288.63;7399034;19;20033;-69
2024/01/09 08:48:21;;;;;;;41.22;20.75;;;;;;;-11.53;93.35;103280.47;7398909;19;20010;-69
2024/01/09 08:50:49;;;;;;;44.97;22.40;;;;;;;-11.51;93.33;103283.16;7398311;19;20477;-69
2024/01/09 08:53:18;;;;;;;48.38;23.10;;;;;;;-11.48;93.01;103289.47;7395560;19;20031;-69
2024/01/09 08:55:46;;;;;;;47.47;21.90;;;;;;;-11.45;93.25;103281.28;7396324;19;20028;-69
2024/01/09 08:58:14;;;;;;;49.67;22.75;;;;;;;-11.39;93.32;103281.97;7398648;19;20021;-69
2024/01/09 09:00:46;;;;;;;53.15;24.35;;;;;;;-11.35;93.55;103281.53;7398395;19;20019;-69
2024/01/09 09:03:20;;;;;;;46.92;22.67;;;;;;;-11.30;92.99;103279.53;7398303;19;20035;-69
2024/01/09 09:05:49;;;;;;;54.03;23.83;;;;;;;-11.26;93.43;103285.81;7398407;19;20100;-69
2024/01/09 09:08:18;;;;;;;53.35;25.88;;;;;;;-11.23;93.00;103288.66;7397737;19;20383;-69
2024/01/09 09:10:46;;;;;;;50.80;22.60;;;;;;;-11.20;93.22;103284.84;7397498;19;20006;-68
2024/01/09 09:13:15;;;;;;;54.95;25.10;;;;;;;-11.15;92.91;103283.69;7396011;19;20082;-69
2024/01/09 09:15:53;;;;;;;51.00;25.42;;;;;;;-11.10;93.13;103283.31;7396368;19;20031;-68
2024/01/09 09:18:22;;;;;;;55.47;25.10;;;;;;;-11.06;93.11;103281.25;7395970;19;20018;-68
2024/01/09 09:20:50;;;;;;;52.67;26.33;;;;;;;-11.01;92.89;103285.16;7395561;19;20037;-68
2024/01/09 09:23:19;;;;;;;55.47;27.23;;;;;;;-10.97;92.80;103282.25;7396338;19;20473;-68
2024/01/09 09:25:47;;;;;;;57.17;27.10;;;;;;;-10.91;93.04;103281.97;7396541;19;20036;-69
2024/01/09 09:28:16;;;;;;;55.53;27.65;;;;;;;-10.85;93.11;103290.25;7396741;19;20038;-68
2024/01/09 09:30:45;;;;;;;61.22;28.20;;;;;;;-10.80;93.04;103285.66;7396222;19;20011;-68
2024/01/09 09:33:16;;;;;;;58.03;27.90;;;;;;;-10.76;92.94;103284.34;7394529;19;20014;-68
2024/01/09 09:35:44;;;;;;;61.70;28.73;;;;;;;-10.72;92.96;103279.75;7397052;19;20500;-69
2024/01/09 09:38:13;;;;;;;58.35;27.75;;;;;;;-10.66;93.26;103274.44;7393577;19;20477;-68
2024/01/09 09:40:43;;;;;;;51.70;25.55;;;;;;;-10.61;93.47;103280.88;7396474;19;20031;-68
2024/01/09 09:43:18;;;;;;;59.42;26.63;;;;;;;-10.57;93.34;103284.66;7396241;19;20018;-68
2024/01/09 09:45:50;;;;;;;57.88;27.90;;;;;;;-10.53;92.92;103274.06;7394553;19;20453;-68
2024/01/09 09:48:23;;;;;;;58.10;28.13;;;;;;;-10.49;93.13;103274.56;7396435;19;20027;-69
2024/01/09 09:50:54;;;;;;;63.10;30.38;;;;;;;-10.43;92.31;103283.56;7396233;19;20548;-68
2024/01/09 09:53:24;;;;;;;64.60;27.88;;;;;;;-10.38;93.01;103272.25;7395101;19;20070;-68
2024/01/09 09:55:55;;;;;;;63.70;28.23;;;;;;;-10.34;92.66;103264.16;7397041;19;20017;-68
2024/01/09 09:58:23;;;;;;;59.53;30.08;;;;;;;-10.28;92.64;103269.00;7394472;19;20481;-68
2024/01/09 10:00:52;;;;;;;64.00;29.75;;;;;;;-10.23;92.64;103271.25;7396428;19;20022;-69
2024/01/09 10:03:30;;;;;;;57.25;29.05;;;;;;;-10.18;92.72;103264.13;7395819;19;20035;-68
2024/01/09 10:05:59;;;;;;;65.18;29.52;;;;;;;-10.12;92.12;103274.91;7395038;19;20095;-70
2024/01/09 10:08:28;;;;;;;60.05;28.73;;;;;;;-10.06;92.13;103267.00;7395571;19;20423;-69
2024/01/09 10:10:56;;;;;;;61.60;28.23;;;;;;;-10.04;91.92;103271.50;7394122;19;20018;-68
2024/01/09 10:13:25;;;;;;;62.75;29.48;;;;;;;-9.97;92.23;103273.00;7393977;19;20462;-68
2024/01/09 10:16:03;;;;;;;64.53;28.77;;;;;;;-9.87;92.34;103264.69;7394253;19;20027;-69
2024/01/09 10:18:41;;;;;;;60.88;30.08;;;;;;;-9.77;92.55;103264.00;7395758;19;20007;-69
2024/01/09 10:21:10;;;;;;;61.55;29.83;;;;;;;-9.69;92.18;103266.56;7395239;19;20481;-68
2024/01/09 10:23:39;;;;;;;59.22;28.73;;;;;;;-9.60;92.04;103263.16;7394578;19;20018;-70
2024/01/09 10:26:13;;;;;;;65.53;29.88;;;;;;;-9.54;92.37;103269.78;7394733;19;20082;-69
2024/01/09 10:28:41;;;;;;;60.90;29.08;;;;;;;-9.50;90.74;103260.81;7395515;19;20077;-69
2024/01/09 10:31:10;;;;;;;59.00;27.73;;;;;;;-9.48;91.11;103256.75;7395563;19;20018;-69
2024/01/09 10:33:43;;;;;;;60.47;28.05;;;;;;;-9.43;91.32;103253.03;7393481;19;20019;-69
2024/01/09 10:36:12;;;;;;;61.53;30.23;;;;;;;-9.38;91.15;103258.59;7397309;19;20428;-70
2024/01/09 10:38:40;;;;;;;58.70;27.95;;;;;;;-9.34;90.57;103256.50;7394793;19;20034;-69
2024/01/09 10:41:18;;;;;;;60.35;27.02;;;;;;;-9.29;90.05;103256.06;7395063;19;20027;-69
2024/01/09 10:43:47;;;;;;;61.13;28.23;;;;;;;-9.28;90.54;103251.13;7393930;19;20477;-69
2024/01/09 10:46:17;;;;;;;52.05;26.02;;;;;;;-9.25;90.53;103248.91;7392310;19;20082;-69
2024/01/09 10:48:49;;;;;;;56.95;29.33;;;;;;;-9.25;90.28;103245.44;7394413;19;20013;-69
2024/01/09 10:51:18;;;;;;;52.78;27.33;;;;;;;-9.22;91.08;103240.69;7393369;19;20028;-69
2024/01/09 10:53:47;;;;;;;56.83;25.98;;;;;;;-9.19;90.45;103246.06;7392986;19;20031;-69
2024/01/09 10:56:18;;;;;;;55.40;25.58;;;;;;;-9.16;89.88;103236.19;7394351;19;20015;-69
2024/01/09 10:58:48;;;;;;;53.42;26.77;;;;;;;-9.13;90.34;103241.56;7393334;19;20010;-69
2024/01/09 11:01:17;;;;;;;52.63;25.65;;;;;;;-9.09;91.09;103232.59;7392745;19;20034;-69
2024/01/09 11:03:49;;;;;;;46.97;25.85;;;;;;;-9.04;90.64;103233.94;7393332;19;20022;-69
2024/01/09 11:06:19;;;;;;;52.97;26.88;;;;;;;-9.02;89.27;103233.34;7393014;19;20017;-69
2024/01/09 11:08:55;;;;;;;48.90;24.63;;;;;;;-9.01;88.53;103226.59;7394014;19;20401;-69
2024/01/09 11:11:25;;;;;;;52.55;25.98;;;;;;;-8.95;90.07;103226.31;7392661;19;20070;-69